Terminal Aerodrome Forecast
Issued by NWS

Home | Current Version | Previous Version | Text Only | Print | Product List | Glossary On
Versions: 1 2 3 4 5 6 7 8 9 10 11 12
000
FTUS44 KLZK 190500
TAFADF
TAF
KADF 190534Z 1906/2006 00000KT P6SM SKC
      TEMPO 1911/1914 4SM BR
     FM191400 12003KT P6SM SCT250
     FM191800 14006KT P6SM SCT050=

USA.gov is the U.S. government's official web portal to all federal, state and local government web resources and services.